sensor_id;sensor_type;location;lat;lon;timestamp;pressure;altitude;pressure_sealevel;temperature;humidity
77149;BME280;66122;47.130;16.844;2023-03-21T00:02:15;99890.81;;;6.53;89.37
77149;BME280;66122;47.130;16.844;2023-03-21T00:12:18;99891.94;;;6.46;89.84
77149;BME280;66122;47.130;16.844;2023-03-21T00:22:22;99854.22;;;5.12;91.21
77149;BME280;66122;47.130;16.844;2023-03-21T00:32:25;99884.19;;;5.34;98.83
77149;BME280;66122;47.130;16.844;2023-03-21T00:42:28;99854.47;;;5.88;92.37
77149;BME280;66122;47.130;16.844;2023-03-21T00:52:31;99835.75;;;6.22;90.30
77149;BME280;66122;47.130;16.844;2023-03-21T01:02:42;99858.94;;;6.60;90.11
77149;BME280;66122;47.130;16.844;2023-03-21T01:13:09;99851.34;;;6.76;89.64
77149;BME280;66122;47.130;16.844;2023-03-21T01:23:13;99848.34;;;6.85;91.36
77149;BME280;66122;47.130;16.844;2023-03-21T01:33:18;99847.44;;;6.86;91.87
77149;BME280;66122;47.130;16.844;2023-03-21T01:53:29;99836.78;;;7.13;89.90
77149;BME280;66122;47.130;16.844;2023-03-21T02:03:32;99831.88;;;7.03;90.78
77149;BME280;66122;47.130;16.844;2023-03-21T02:14:02;99817.78;;;7.04;89.82
77149;BME280;66122;47.130;16.844;2023-03-21T02:25:01;99824.34;;;7.38;89.05
77149;BME280;66122;47.130;16.844;2023-03-21T02:46:12;99819.63;;;7.46;88.76
77149;BME280;66122;47.130;16.844;2023-03-21T02:56:18;99798.53;;;7.46;88.75
77149;BME280;66122;47.130;16.844;2023-03-21T03:27:23;99820.53;;;7.45;90.39
77149;BME280;66122;47.130;16.844;2023-03-21T03:37:32;99798.34;;;7.51;90.43
77149;BME280;66122;47.130;16.844;2023-03-21T03:58:06;99813.28;;;7.72;88.71
77149;BME280;66122;47.130;16.844;2023-03-21T04:08:23;99820.34;;;7.28;94.14
77149;BME280;66122;47.130;16.844;2023-03-21T04:18:30;99835.56;;;7.65;91.32
77149;BME280;66122;47.130;16.844;2023-03-21T04:28:34;99829.50;;;7.63;90.91
77149;BME280;66122;47.130;16.844;2023-03-21T04:38:53;99832.81;;;7.68;91.31
77149;BME280;66122;47.130;16.844;2023-03-21T04:48:59;99832.44;;;7.55;91.66
77149;BME280;66122;47.130;16.844;2023-03-21T04:59:07;99839.19;;;7.40;91.62
77149;BME280;66122;47.130;16.844;2023-03-21T05:09:11;99825.00;;;7.43;89.76
77149;BME280;66122;47.130;16.844;2023-03-21T05:19:14;99840.53;;;7.51;90.30
77149;BME280;66122;47.130;16.844;2023-03-21T05:29:20;99824.41;;;7.58;89.41
77149;BME280;66122;47.130;16.844;2023-03-21T05:39:31;99873.63;;;7.79;89.92
77149;BME280;66122;47.130;16.844;2023-03-21T05:49:44;99858.06;;;7.73;88.53
77149;BME280;66122;47.130;16.844;2023-03-21T05:59:48;99815.16;;;7.48;88.80
77149;BME280;66122;47.130;16.844;2023-03-21T06:09:52;99860.31;;;8.24;86.88
77149;BME280;66122;47.130;16.844;2023-03-21T06:19:55;99858.75;;;9.73;82.05
77149;BME280;66122;47.130;16.844;2023-03-21T06:30:08;99873.94;;;11.23;73.73
77149;BME280;66122;47.130;16.844;2023-03-21T06:40:32;99885.09;;;12.23;64.67
77149;BME280;66122;47.130;16.844;2023-03-21T06:50:35;99879.69;;;12.24;64.88
77149;BME280;66122;47.130;16.844;2023-03-21T07:00:38;99848.75;;;11.78;66.59
77149;BME280;66122;47.130;16.844;2023-03-21T07:10:43;99835.63;;;12.20;63.04
77149;BME280;66122;47.130;16.844;2023-03-21T07:20:50;99860.16;;;12.39;66.10
77149;BME280;66122;47.130;16.844;2023-03-21T07:30:58;99861.31;;;12.49;66.07
77149;BME280;66122;47.130;16.844;2023-03-21T07:41:03;99867.63;;;13.34;62.31
77149;BME280;66122;47.130;16.844;2023-03-21T07:51:08;99862.72;;;13.68;61.42
77149;BME280;66122;47.130;16.844;2023-03-21T08:01:11;99874.59;;;13.63;60.23
77149;BME280;66122;47.130;16.844;2023-03-21T08:11:14;99876.88;;;14.75;60.31
77149;BME280;66122;47.130;16.844;2023-03-21T08:21:16;99868.50;;;15.55;56.35
77149;BME280;66122;47.130;16.844;2023-03-21T08:31:19;99869.97;;;15.59;56.39
77149;BME280;66122;47.130;16.844;2023-03-21T08:41:23;99866.53;;;16.29;48.49
77149;BME280;66122;47.130;16.844;2023-03-21T08:51:27;99848.16;;;16.24;47.11
77149;BME280;66122;47.130;16.844;2023-03-21T09:01:30;99842.47;;;17.53;43.77
77149;BME280;66122;47.130;16.844;2023-03-21T09:11:34;99827.72;;;17.70;41.44
77149;BME280;66122;47.130;16.844;2023-03-21T09:21:37;99828.66;;;18.64;40.62
77149;BME280;66122;47.130;16.844;2023-03-21T09:31:40;99840.75;;;19.40;40.83
77149;BME280;66122;47.130;16.844;2023-03-21T09:42:05;99835.75;;;19.76;39.54
77149;BME280;66122;47.130;16.844;2023-03-21T09:52:42;99821.69;;;19.13;40.28
77149;BME280;66122;47.130;16.844;2023-03-21T10:02:51;99812.25;;;19.59;38.08
77149;BME280;66122;47.130;16.844;2023-03-21T10:12:58;99815.41;;;20.21;37.14
77149;BME280;66122;47.130;16.844;2023-03-21T10:23:06;99774.88;;;20.04;35.71
77149;BME280;66122;47.130;16.844;2023-03-21T10:33:19;99808.25;;;18.83;39.49
77149;BME280;66122;47.130;16.844;2023-03-21T10:43:31;99802.78;;;20.22;37.98
77149;BME280;66122;47.130;16.844;2023-03-21T10:53:38;99761.44;;;20.79;33.94
77149;BME280;66122;47.130;16.844;2023-03-21T11:03:44;99803.63;;;19.74;34.66
77149;BME280;66122;47.130;16.844;2023-03-21T11:13:56;99774.38;;;18.40;40.75
77149;BME280;66122;47.130;16.844;2023-03-21T11:23:59;99757.97;;;17.38;40.23
77149;BME280;66122;47.130;16.844;2023-03-21T11:34:05;99775.34;;;17.54;41.69
77149;BME280;66122;47.130;16.844;2023-03-21T11:44:26;99769.28;;;17.64;41.91
77149;BME280;66122;47.130;16.844;2023-03-21T12:05:03;99712.53;;;17.47;41.48
77149;BME280;66122;47.130;16.844;2023-03-21T12:15:26;99726.25;;;18.48;40.51
77149;BME280;66122;47.130;16.844;2023-03-21T12:25:43;99706.38;;;19.50;35.88
77149;BME280;66122;47.130;16.844;2023-03-21T12:35:58;99689.06;;;24.27;28.90
77149;BME280;66122;47.130;16.844;2023-03-21T12:46:16;99686.09;;;23.31;29.35
77149;BME280;66122;47.130;16.844;2023-03-21T13:06:30;99656.19;;;22.48;29.71
77149;BME280;66122;47.130;16.844;2023-03-21T13:16:46;99649.03;;;22.31;30.12
77149;BME280;66122;47.130;16.844;2023-03-21T13:27:14;99633.53;;;20.83;33.38
77149;BME280;66122;47.130;16.844;2023-03-21T13:37:18;99627.41;;;19.22;37.08
77149;BME280;66122;47.130;16.844;2023-03-21T13:47:50;99624.50;;;21.20;33.95
77149;BME280;66122;47.130;16.844;2023-03-21T13:57:46;99618.88;;;18.98;35.55
77149;BME280;66122;47.130;16.844;2023-03-21T14:07:54;99614.88;;;21.53;32.13
77149;BME280;66122;47.130;16.844;2023-03-21T14:18:01;99599.53;;;23.15;30.02
77149;BME280;66122;47.130;16.844;2023-03-21T14:28:27;99602.66;;;20.78;32.12
77149;BME280;66122;47.130;16.844;2023-03-21T14:38:35;99590.03;;;18.81;35.75
77149;BME280;66122;47.130;16.844;2023-03-21T14:48:38;99555.63;;;20.72;34.25
77149;BME280;66122;47.130;16.844;2023-03-21T14:58:43;99552.50;;;21.30;33.17
77149;BME280;66122;47.130;16.844;2023-03-21T15:08:54;99552.78;;;20.19;34.33
77149;BME280;66122;47.130;16.844;2023-03-21T15:18:59;99550.34;;;18.34;38.35
77149;BME280;66122;47.130;16.844;2023-03-21T15:29:04;99527.31;;;17.41;40.81
77149;BME280;66122;47.130;16.844;2023-03-21T15:39:13;99513.09;;;16.56;43.40
77149;BME280;66122;47.130;16.844;2023-03-21T15:49:19;99551.00;;;16.72;43.46
77149;BME280;66122;47.130;16.844;2023-03-21T15:59:26;99534.53;;;16.33;46.27
77149;BME280;66122;47.130;16.844;2023-03-21T16:09:40;99530.59;;;15.83;48.95
77149;BME280;66122;47.130;16.844;2023-03-21T16:19:44;99553.16;;;15.68;51.00
77149;BME280;66122;47.130;16.844;2023-03-21T16:29:47;99566.56;;;15.44;50.64
77149;BME280;66122;47.130;16.844;2023-03-21T16:39:50;99564.97;;;15.07;50.28
77149;BME280;66122;47.130;16.844;2023-03-21T16:49:52;99562.31;;;15.07;49.22
77149;BME280;66122;47.130;16.844;2023-03-21T16:59:57;99565.41;;;14.90;48.98
77149;BME280;66122;47.130;16.844;2023-03-21T17:09:59;99549.75;;;14.61;49.96
77149;BME280;66122;47.130;16.844;2023-03-21T17:30:25;99591.72;;;14.34;51.14
77149;BME280;66122;47.130;16.844;2023-03-21T17:40:30;99597.63;;;14.14;51.91
77149;BME280;66122;47.130;16.844;2023-03-21T17:50:34;99602.78;;;14.04;51.59
77149;BME280;66122;47.130;16.844;2023-03-21T18:00:38;99597.88;;;13.85;53.41
77149;BME280;66122;47.130;16.844;2023-03-21T18:10:42;99597.34;;;13.67;54.30
77149;BME280;66122;47.130;16.844;2023-03-21T18:20:45;99607.03;;;13.56;54.70
77149;BME280;66122;47.130;16.844;2023-03-21T18:30:55;99596.03;;;13.35;54.59
77149;BME280;66122;47.130;16.844;2023-03-21T18:41:11;99610.38;;;13.20;54.85
77149;BME280;66122;47.130;16.844;2023-03-21T18:51:15;99619.44;;;13.17;54.97
77149;BME280;66122;47.130;16.844;2023-03-21T19:01:21;99621.16;;;13.04;56.20
77149;BME280;66122;47.130;16.844;2023-03-21T19:11:24;99616.19;;;12.85;57.37
77149;BME280;66122;47.130;16.844;2023-03-21T19:21:27;99638.72;;;12.80;58.90
77149;BME280;66122;47.130;16.844;2023-03-21T19:31:31;99649.19;;;12.69;58.63
77149;BME280;66122;47.130;16.844;2023-03-21T19:41:34;99625.31;;;12.40;59.58
77149;BME280;66122;47.130;16.844;2023-03-21T19:51:39;99644.16;;;12.37;59.77
77149;BME280;66122;47.130;16.844;2023-03-21T20:01:42;99632.38;;;12.13;60.63
77149;BME280;66122;47.130;16.844;2023-03-21T20:11:46;99629.34;;;12.19;60.65
77149;BME280;66122;47.130;16.844;2023-03-21T20:21:49;99657.25;;;12.12;62.16
77149;BME280;66122;47.130;16.844;2023-03-21T20:32:01;99660.09;;;11.81;63.07
77149;BME280;66122;47.130;16.844;2023-03-21T20:42:04;99627.28;;;11.52;62.98
77149;BME280;66122;47.130;16.844;2023-03-21T20:52:07;99641.88;;;11.45;64.92
77149;BME280;66122;47.130;16.844;2023-03-21T21:02:31;99673.44;;;11.49;65.95
77149;BME280;66122;47.130;16.844;2023-03-21T21:12:38;99669.06;;;11.48;65.05
77149;BME280;66122;47.130;16.844;2023-03-21T21:22:43;99675.75;;;11.40;66.59
77149;BME280;66122;47.130;16.844;2023-03-21T21:32:57;99681.72;;;11.13;66.73
77149;BME280;66122;47.130;16.844;2023-03-21T21:43:02;99676.88;;;10.90;67.04
77149;BME280;66122;47.130;16.844;2023-03-21T21:53:05;99673.72;;;10.68;68.35
77149;BME280;66122;47.130;16.844;2023-03-21T22:03:09;99673.13;;;10.47;67.97
77149;BME280;66122;47.130;16.844;2023-03-21T22:13:13;99680.53;;;10.07;71.90
77149;BME280;66122;47.130;16.844;2023-03-21T22:23:15;99688.09;;;9.65;73.77
77149;BME280;66122;47.130;16.844;2023-03-21T22:33:21;99697.78;;;8.94;78.70
77149;BME280;66122;47.130;16.844;2023-03-21T22:43:24;99668.09;;;8.89;75.91
77149;BME280;66122;47.130;16.844;2023-03-21T22:53:27;99678.91;;;8.66;77.38
77149;BME280;66122;47.130;16.844;2023-03-21T23:03:30;99667.38;;;7.51;83.23
77149;BME280;66122;47.130;16.844;2023-03-21T23:13:34;99668.91;;;7.96;78.44
77149;BME280;66122;47.130;16.844;2023-03-21T23:23:39;99654.94;;;7.94;78.48
77149;BME280;66122;47.130;16.844;2023-03-21T23:33:44;99658.69;;;7.49;81.19
77149;BME280;66122;47.130;16.844;2023-03-21T23:43:48;99696.59;;;7.04;86.71
77149;BME280;66122;47.130;16.844;2023-03-21T23:53:51;99678.44;;;7.19;84.83
